Time;durP1;ratioP1;P1;durP2;ratioP2;P2;SDS_P1;SDS_P2;PMS_P1;PMS_P2;Temp;Humidity;BMP_temperature;BMP_pressure;BME280_temperature;BME280_humidity;BME280_pressure;Samples;Min_cycle;Max_cycle;Signal;HPM_P1;HPM_P2
2023/03/04 00:00:50;;;;;;;15.48;3.63;;;;;;;4.08;92.12;102635.75;5092044;28;20051;-77
2023/03/04 00:03:15;;;;;;;13.95;3.10;;;;;;;4.08;92.45;102645.22;5092736;28;20032;-77
2023/03/04 00:05:40;;;;;;;13.95;3.45;;;;;;;4.07;93.04;102639.19;5091779;28;20390;-77
2023/03/04 00:08:06;;;;;;;15.77;4.13;;;;;;;4.07;93.09;102644.34;5089067;28;20377;-77
2023/03/04 00:10:31;;;;;;;17.90;3.90;;;;;;;4.08;93.11;102645.22;5092335;28;20028;-77
2023/03/04 00:12:56;;;;;;;15.25;3.58;;;;;;;4.06;93.87;102640.03;5092003;28;20024;-77
2023/03/04 00:15:22;;;;;;;18.88;3.67;;;;;;;4.06;93.60;102646.88;5092531;28;20146;-77
2023/03/04 00:17:47;;;;;;;15.85;4.57;;;;;;;4.06;93.47;102639.16;5092224;28;20020;-77
2023/03/04 00:20:13;;;;;;;17.10;3.97;;;;;;;3.98;93.77;102628.56;5091510;28;20060;-77
2023/03/04 00:22:38;;;;;;;18.10;4.38;;;;;;;4.05;93.39;102632.22;5092017;28;20035;-77
2023/03/04 00:25:04;;;;;;;15.77;4.00;;;;;;;4.01;93.46;102628.66;5087181;28;20025;-77
2023/03/04 00:27:29;;;;;;;19.27;4.57;;;;;;;4.04;93.05;102627.88;5063138;28;20040;-78
2023/03/04 00:29:55;;;;;;;14.90;3.92;;;;;;;4.05;93.11;102627.06;5079772;28;20025;-78
2023/03/04 00:32:20;;;;;;;14.10;4.05;;;;;;;4.01;93.90;102614.88;5081160;28;20525;-77
2023/03/04 00:34:46;;;;;;;16.05;4.10;;;;;;;4.05;94.40;102629.63;5081335;28;20024;-78
2023/03/04 00:37:11;;;;;;;16.65;3.88;;;;;;;4.05;93.30;102622.75;5092279;28;20050;-78
2023/03/04 00:39:39;;;;;;;15.77;4.00;;;;;;;3.95;93.79;102612.97;5081021;28;20024;-78
2023/03/04 00:42:05;;;;;;;14.10;3.88;;;;;;;4.06;94.23;102634.00;5086422;28;20092;-77
2023/03/04 00:44:30;;;;;;;13.50;3.40;;;;;;;4.02;93.28;102619.22;5076801;28;20464;-77
2023/03/04 00:46:55;;;;;;;20.50;4.03;;;;;;;4.06;94.48;102626.25;5082888;28;20060;-77
2023/03/04 00:49:21;;;;;;;15.25;3.97;;;;;;;3.97;94.35;102609.63;5071390;28;20016;-77
2023/03/04 00:51:46;;;;;;;20.10;3.78;;;;;;;4.07;94.28;102630.56;5063463;28;20021;-77
2023/03/04 00:54:11;;;;;;;17.00;3.65;;;;;;;4.07;93.94;102621.13;5083550;28;20035;-77
2023/03/04 00:56:39;;;;;;;15.70;3.42;;;;;;;3.93;94.22;102610.38;5088731;28;20020;-77
2023/03/04 00:59:05;;;;;;;17.98;3.67;;;;;;;4.03;94.25;102619.28;5087824;28;20435;-77
2023/03/04 01:01:30;;;;;;;24.98;4.22;;;;;;;4.04;94.25;102614.97;5087740;28;20020;-77
2023/03/04 01:03:55;;;;;;;23.58;3.55;;;;;;;4.07;94.07;102631.44;5091364;28;20024;-77
2023/03/04 01:06:21;;;;;;;21.50;3.83;;;;;;;4.08;94.64;102635.75;5083812;28;20020;-77
2023/03/04 01:08:46;;;;;;;22.17;3.95;;;;;;;4.09;94.45;102631.50;5091158;28;20070;-77
2023/03/04 01:11:11;;;;;;;14.73;3.40;;;;;;;4.09;94.47;102641.84;5091892;28;20028;-77
2023/03/04 01:13:37;;;;;;;17.92;3.78;;;;;;;3.99;94.45;102620.00;5091827;28;20095;-77
2023/03/04 01:16:03;;;;;;;16.83;3.90;;;;;;;4.08;94.76;102634.91;5087858;28;20040;-77
2023/03/04 01:18:29;;;;;;;18.77;4.18;;;;;;;4.06;94.99;102637.44;5088303;28;20044;-77
2023/03/04 01:20:54;;;;;;;18.83;3.75;;;;;;;4.07;95.33;102641.75;5095684;28;20132;-77
2023/03/04 01:23:20;;;;;;;17.00;4.30;;;;;;;4.06;95.95;102632.28;5094979;28;20016;-78
2023/03/04 01:25:45;;;;;;;17.02;3.95;;;;;;;4.06;95.94;102634.00;5095175;28;20494;-77
2023/03/04 01:28:10;;;;;;;16.30;3.40;;;;;;;4.06;95.58;102629.69;5095363;28;20055;-77
2023/03/04 01:30:36;;;;;;;17.88;4.47;;;;;;;4.05;95.13;102627.91;5094351;28;20103;-77
2023/03/04 01:33:01;;;;;;;18.55;3.80;;;;;;;3.99;95.40;102620.00;5091899;28;20044;-77
2023/03/04 01:35:26;;;;;;;13.43;3.58;;;;;;;4.07;95.47;102630.56;5090680;28;20459;-77
2023/03/04 01:37:51;;;;;;;11.23;3.38;;;;;;;4.08;94.92;102629.72;5094457;28;20108;-78
2023/03/04 01:40:17;;;;;;;16.05;3.33;;;;;;;4.05;95.68;102616.72;5095147;28;20498;-77
2023/03/04 01:42:43;;;;;;;16.40;3.25;;;;;;;4.03;95.82;102619.28;5091750;28;20077;-77
2023/03/04 01:45:14;;;;;;;15.02;3.33;;;;;;;4.05;96.78;102620.19;5081806;28;20031;-77
2023/03/04 01:47:43;;;;;;;13.60;3.00;;;;;;;4.01;95.93;102607.13;5094778;28;20059;-77
2023/03/04 01:50:16;;;;;;;15.45;3.45;;;;;;;4.06;96.08;102609.03;5090430;28;20056;-77
2023/03/04 01:52:41;;;;;;;17.15;3.10;;;;;;;4.07;95.44;102612.50;5087404;28;20038;-77
2023/03/04 01:55:25;;;;;;;13.77;3.47;;;;;;;4.08;95.40;102606.50;5095033;28;20096;-77
2023/03/04 01:57:51;;;;;;;;;;;;;;;4.09;95.38;102597.94;5091115;28;20107;-77
2023/03/04 02:00:19;;;;;;;15.02;3.10;;;;;;;4.02;95.93;102589.09;5064469;28;20011;-77
2023/03/04 02:02:46;;;;;;;14.43;3.63;;;;;;;4.06;96.12;102597.84;5086856;28;20118;-77
2023/03/04 02:05:12;;;;;;;16.08;2.80;;;;;;;3.99;96.29;102578.72;5079520;28;20137;-78
2023/03/04 02:07:38;;;;;;;15.65;2.70;;;;;;;4.06;95.83;102583.25;5081863;28;20028;-77
2023/03/04 02:10:04;;;;;;;11.25;2.67;;;;;;;4.07;95.69;102587.56;5077278;28;20039;-78
2023/03/04 02:12:29;;;;;;;15.57;3.47;;;;;;;4.07;95.84;102581.53;5082650;28;20121;-77
2023/03/04 02:14:55;;;;;;;18.73;3.25;;;;;;;4.02;95.89;102570.16;5077833;28;20495;-78
2023/03/04 02:17:24;;;;;;;15.32;3.08;;;;;;;3.98;95.61;102558.88;5080802;28;20077;-78
2023/03/04 02:20:01;;;;;;;13.60;3.28;;;;;;;4.10;95.32;102581.63;5070074;28;20024;-77
2023/03/04 02:22:26;;;;;;;15.70;2.92;;;;;;;4.03;95.42;102569.38;5067013;28;20035;-78
2023/03/04 02:24:59;;;;;;;16.15;3.10;;;;;;;4.09;94.71;102585.91;5078642;28;20028;-78
2023/03/04 02:27:24;;;;;;;13.65;2.65;;;;;;;4.10;94.90;102577.34;5076040;28;20032;-78
2023/03/04 02:29:49;;;;;;;13.38;2.72;;;;;;;4.06;94.98;102572.91;5073804;28;20482;-78
2023/03/04 02:32:15;;;;;;;15.38;2.97;;;;;;;4.07;95.72;102571.22;5076087;28;20086;-78
2023/03/04 02:34:49;;;;;;;15.00;2.35;;;;;;;4.08;95.20;102585.84;5072961;28;20028;-78
2023/03/04 02:37:16;;;;;;;17.75;2.85;;;;;;;4.01;95.16;102564.13;5077157;28;20028;-78
2023/03/04 02:39:44;;;;;;;12.80;2.33;;;;;;;4.06;95.67;102572.91;5079506;28;20111;-78
2023/03/04 02:42:10;;;;;;;15.90;2.90;;;;;;;4.05;95.60;102565.09;5083467;28;20036;-78
2023/03/04 02:44:38;;;;;;;8.65;2.50;;;;;;;4.08;95.43;102572.94;5080638;28;20464;-78
2023/03/04 02:47:07;;;;;;;14.85;2.60;;;;;;;3.94;95.72;102545.00;5081856;28;20039;-78
2023/03/04 02:49:34;;;;;;;12.15;2.78;;;;;;;4.04;95.27;102559.06;5069108;28;20078;-77
2023/03/04 02:52:06;;;;;;;14.38;3.00;;;;;;;4.06;95.64;102566.88;5068115;28;20108;-78
2023/03/04 02:54:31;;;;;;;14.25;2.85;;;;;;;4.05;95.92;102558.22;5079361;28;20024;-77
2023/03/04 02:57:02;;;;;;;14.40;2.60;;;;;;;3.97;95.95;102550.28;5093773;28;20020;-77
2023/03/04 02:59:28;;;;;;;12.10;2.75;;;;;;;4.04;95.91;102555.63;5073881;28;20048;-77
2023/03/04 03:01:54;;;;;;;13.82;2.40;;;;;;;3.95;96.27;102546.75;5075041;28;20040;-77
2023/03/04 03:04:21;;;;;;;11.45;2.85;;;;;;;3.89;95.56;102530.19;5072070;28;20527;-78
2023/03/04 03:06:47;;;;;;;15.02;2.45;;;;;;;4.05;95.77;102554.78;5087124;28;20488;-77
2023/03/04 03:09:12;;;;;;;17.83;2.70;;;;;;;4.00;95.89;102549.50;5085860;28;20035;-78
2023/03/04 03:11:37;;;;;;;15.93;3.10;;;;;;;4.04;95.96;102545.31;5088823;28;20386;-77
2023/03/04 03:14:04;;;;;;;14.15;2.50;;;;;;;4.04;96.04;102548.75;5084576;28;20413;-77
2023/03/04 03:16:29;;;;;;;16.27;2.67;;;;;;;4.05;96.24;102549.63;5083901;28;20035;-77
2023/03/04 03:18:55;;;;;;;14.40;2.40;;;;;;;4.04;96.78;102545.31;5072297;28;20089;-77
2023/03/04 03:21:20;;;;;;;14.25;1.90;;;;;;;4.03;96.56;102552.16;5081347;28;20032;-77
2023/03/04 03:23:46;;;;;;;13.45;2.40;;;;;;;3.96;96.75;102530.47;5074758;28;20054;-78
2023/03/04 03:26:11;;;;;;;11.80;2.50;;;;;;;4.01;97.05;102542.63;5078011;28;20054;-77
2023/03/04 03:28:37;;;;;;;9.18;2.28;;;;;;;4.01;96.85;102543.50;5076492;28;20035;-78
2023/03/04 03:31:02;;;;;;;9.48;2.60;;;;;;;3.92;96.93;102528.63;5085519;28;20493;-77
2023/03/04 03:33:27;;;;;;;11.70;2.38;;;;;;;4.04;96.78;102537.56;5087004;28;20085;-77
2023/03/04 03:35:53;;;;;;;9.85;2.40;;;;;;;3.99;97.27;102535.72;5090724;28;20099;-77
2023/03/04 03:38:18;;;;;;;18.67;2.92;;;;;;;4.01;97.46;102535.75;5081948;28;20485;-78
2023/03/04 03:40:44;;;;;;;13.05;2.60;;;;;;;3.98;97.84;102539.09;5078260;28;20081;-78
2023/03/04 03:43:09;;;;;;;9.25;2.25;;;;;;;3.98;97.77;102533.06;5089030;28;20422;-77
2023/03/04 03:45:34;;;;;;;13.10;3.15;;;;;;;3.97;98.06;102532.19;5091875;28;20471;-78
2023/03/04 03:48:03;;;;;;;12.65;2.50;;;;;;;4.01;98.14;102532.31;5090869;28;20016;-78
2023/03/04 03:50:28;;;;;;;12.65;2.70;;;;;;;4.01;98.36;102535.75;5079837;28;20069;-78
2023/03/04 03:52:53;;;;;;;15.07;2.75;;;;;;;3.99;98.03;102538.31;5092562;28;20016;-78
2023/03/04 03:55:19;;;;;;;12.40;2.35;;;;;;;4.00;98.08;102539.16;5092986;28;20348;-78
2023/03/04 03:57:45;;;;;;;10.75;2.35;;;;;;;4.01;98.18;102543.50;5091875;28;20524;-78
2023/03/04 04:00:11;;;;;;;9.88;2.65;;;;;;;3.98;98.18;102536.53;5092767;28;20559;-78
2023/03/04 04:02:36;;;;;;;14.07;2.67;;;;;;;3.97;98.55;102534.78;5092293;28;20061;-78
2023/03/04 04:05:02;;;;;;;14.27;2.95;;;;;;;3.90;98.68;102519.94;5091801;28;20095;-78
2023/03/04 04:07:27;;;;;;;12.80;2.30;;;;;;;3.96;98.63;102535.63;5087943;28;20474;-77
2023/03/04 04:09:52;;;;;;;10.85;2.60;;;;;;;3.91;98.95;102526.84;5092621;28;20145;-78
2023/03/04 04:12:21;;;;;;;16.00;2.65;;;;;;;3.94;99.44;102532.09;5091978;28;20032;-78
2023/03/04 04:14:46;;;;;;;17.73;3.08;;;;;;;3.96;98.94;102537.34;5092202;28;20028;-78
2023/03/04 04:17:12;;;;;;;11.55;2.10;;;;;;;3.95;99.01;102536.44;5092368;28;20031;-78
2023/03/04 04:19:39;;;;;;;12.07;2.42;;;;;;;3.94;98.81;102539.84;5091430;28;20482;-78
2023/03/04 04:22:05;;;;;;;10.25;2.40;;;;;;;3.94;98.37;102537.28;5092103;28;20536;-78
2023/03/04 04:24:31;;;;;;;20.95;3.13;;;;;;;3.92;98.20;102540.63;5086054;28;20020;-78
2023/03/04 04:26:56;;;;;;;11.65;2.65;;;;;;;3.92;97.71;102544.09;5088846;28;20405;-78
2023/03/04 04:29:22;;;;;;;13.65;2.53;;;;;;;3.92;98.38;102543.19;5092415;28;20020;-78
2023/03/04 04:31:47;;;;;;;12.40;2.13;;;;;;;3.91;97.65;102538.88;5078782;28;20565;-78
2023/03/04 04:34:13;;;;;;;19.90;3.03;;;;;;;3.90;97.33;102531.97;5087593;28;20016;-78
2023/03/04 04:36:38;;;;;;;16.42;3.33;;;;;;;3.87;97.16;102532.75;5091855;28;20111;-78
2023/03/04 04:39:03;;;;;;;8.70;2.22;;;;;;;3.84;96.52;102527.50;5078577;28;20047;-78
2023/03/04 04:41:38;;;;;;;10.93;2.30;;;;;;;3.90;96.80;102535.44;5077620;28;20422;-78
2023/03/04 04:44:03;;;;;;;14.32;2.97;;;;;;;3.85;96.01;102533.53;5092213;28;20027;-78
2023/03/04 04:46:29;;;;;;;12.18;2.67;;;;;;;3.79;96.46;102526.47;5091954;28;20123;-78
2023/03/04 04:48:54;;;;;;;7.90;2.08;;;;;;;3.89;96.45;102545.69;5091257;28;20024;-78
2023/03/04 04:51:20;;;;;;;12.65;2.97;;;;;;;3.89;96.74;102550.84;5089024;28;20028;-78
2023/03/04 04:53:45;;;;;;;11.52;2.67;;;;;;;3.89;97.15;102550.84;5074967;28;20100;-78
2023/03/04 04:56:13;;;;;;;9.45;2.65;;;;;;;3.79;96.44;102539.34;5077311;28;20024;-78
2023/03/04 04:58:38;;;;;;;13.18;2.70;;;;;;;3.83;96.23;102543.81;5076679;28;20031;-78
2023/03/04 05:01:05;;;;;;;11.88;2.33;;;;;;;3.88;96.82;102551.69;5087471;28;20037;-78
2023/03/04 05:03:32;;;;;;;12.00;2.70;;;;;;;3.85;96.94;102549.00;5095610;28;20441;-78
2023/03/04 05:05:57;;;;;;;10.32;2.00;;;;;;;3.88;96.36;102549.09;5096072;28;20020;-78
2023/03/04 05:08:22;;;;;;;9.00;2.10;;;;;;;3.89;96.47;102540.53;5095200;28;20096;-78
2023/03/04 05:10:48;;;;;;;13.20;2.60;;;;;;;3.88;96.70;102549.97;5095360;28;20030;-78
2023/03/04 05:13:13;;;;;;;16.33;2.30;;;;;;;3.87;96.30;102545.66;5090702;28;20036;-78
2023/03/04 05:15:38;;;;;;;12.10;2.40;;;;;;;3.87;95.93;102548.22;5085885;28;20051;-78
2023/03/04 05:18:03;;;;;;;8.23;2.17;;;;;;;3.76;96.37;102528.97;5095500;28;20411;-78
2023/03/04 05:20:29;;;;;;;12.95;2.47;;;;;;;3.80;96.19;102524.78;5095099;28;20020;-78
2023/03/04 05:22:54;;;;;;;11.70;2.53;;;;;;;3.87;95.86;102543.06;5095122;28;20020;-78
2023/03/04 05:25:20;;;;;;;11.48;2.28;;;;;;;3.87;95.60;102543.06;5095542;28;20020;-78
2023/03/04 05:27:45;;;;;;;10.32;2.90;;;;;;;3.83;95.80;102537.78;5095383;28;20103;-78
2023/03/04 05:30:11;;;;;;;14.40;2.83;;;;;;;3.87;96.09;102540.50;5094452;28;20119;-78
2023/03/04 05:32:36;;;;;;;13.45;4.55;;;;;;;3.87;96.45;102545.66;5086324;28;20042;-78
2023/03/04 05:35:02;;;;;;;7.20;2.30;;;;;;;3.87;96.62;102543.06;5095247;28;20024;-78
2023/03/04 05:37:30;;;;;;;15.52;2.80;;;;;;;3.86;96.82;102548.16;5094306;28;20066;-78
2023/03/04 05:39:55;;;;;;;10.30;2.75;;;;;;;3.85;96.38;102544.72;5087066;28;20037;-78
2023/03/04 05:42:21;;;;;;;12.43;2.78;;;;;;;3.84;96.64;102558.47;5089291;28;20028;-78
2023/03/04 05:44:46;;;;;;;13.25;2.65;;;;;;;3.85;96.69;102549.88;5094209;28;20474;-78
2023/03/04 05:47:11;;;;;;;15.13;2.90;;;;;;;3.81;96.38;102545.47;5095316;28;20066;-78
2023/03/04 05:49:36;;;;;;;12.50;2.83;;;;;;;3.84;96.93;102553.28;5079259;28;20020;-78
2023/03/04 05:52:02;;;;;;;15.00;3.67;;;;;;;3.85;96.45;102549.00;5094399;28;20032;-78
2023/03/04 05:54:27;;;;;;;7.00;2.60;;;;;;;3.83;96.34;102551.56;5094394;28;20031;-78
2023/03/04 05:56:53;;;;;;;15.25;3.55;;;;;;;3.85;95.74;102554.16;5088572;28;20032;-79
2023/03/04 05:59:19;;;;;;;8.32;2.20;;;;;;;3.87;96.07;102560.25;5072843;28;20080;-78
2023/03/04 06:01:46;;;;;;;6.30;2.22;;;;;;;3.74;96.67;102536.66;5075814;28;20056;-78
2023/03/04 06:04:11;;;;;;;9.82;2.58;;;;;;;3.79;96.53;102544.53;5076156;28;20028;-78
2023/03/04 06:06:36;;;;;;;10.85;2.15;;;;;;;3.84;95.96;102548.13;5067056;28;20019;-78
2023/03/04 06:09:02;;;;;;;10.70;2.13;;;;;;;3.88;96.28;102557.72;5090980;28;20487;-78
2023/03/04 06:11:30;;;;;;;8.48;2.50;;;;;;;3.84;96.42;102553.28;5089468;28;20424;-78
2023/03/04 06:13:56;;;;;;;7.78;2.17;;;;;;;3.74;96.96;102541.81;5094754;28;20020;-78
2023/03/04 06:16:21;;;;;;;5.55;2.22;;;;;;;3.68;98.21;102533.88;5094650;28;20090;-78
2023/03/04 06:18:46;;;;;;;8.55;1.98;;;;;;;3.82;99.04;102554.94;5093631;28;20020;-79
2023/03/04 06:21:12;;;;;;;14.65;3.13;;;;;;;3.77;98.96;102548.78;5090348;28;20029;-78
2023/03/04 06:23:37;;;;;;;7.97;2.10;;;;;;;3.82;98.94;102560.09;5079119;28;20043;-78
2023/03/04 06:26:02;;;;;;;8.13;2.00;;;;;;;3.81;99.49;102571.25;5093748;28;20422;-78
2023/03/04 06:28:28;;;;;;;11.20;2.53;;;;;;;3.75;99.66;102550.41;5094068;28;20455;-79
2023/03/04 06:30:55;;;;;;;9.65;2.38;;;;;;;3.83;99.95;102571.31;5094314;28;20043;-79
2023/03/04 06:33:21;;;;;;;10.57;2.22;;;;;;;3.83;99.98;102569.63;5093599;28;20020;-79
2023/03/04 06:35:47;;;;;;;8.27;2.00;;;;;;;3.85;100.00;102575.69;5094047;28;20038;-78
2023/03/04 06:38:12;;;;;;;6.72;2.25;;;;;;;3.85;100.00;102573.09;5094226;28;20107;-78
2023/03/04 06:40:38;;;;;;;10.18;2.33;;;;;;;3.83;100.00;102574.78;5075975;28;20028;-78
2023/03/04 06:43:03;;;;;;;8.52;2.03;;;;;;;3.82;100.00;102567.84;5065919;28;20016;-78
2023/03/04 06:45:28;;;;;;;6.88;2.20;;;;;;;3.81;100.00;102578.13;5093635;28;20082;-79
2023/03/04 06:47:54;;;;;;;9.00;2.17;;;;;;;3.79;100.00;102572.91;5092601;28;20154;-78
2023/03/04 06:50:19;;;;;;;8.35;2.38;;;;;;;3.81;100.00;102578.13;5094049;28;20463;-78
2023/03/04 06:52:45;;;;;;;7.32;1.70;;;;;;;3.76;100.00;102572.84;5093488;28;20111;-79
2023/03/04 06:55:11;;;;;;;7.68;2.95;;;;;;;3.83;100.00;102582.50;5088619;28;20376;-78
2023/03/04 06:57:37;;;;;;;9.77;2.92;;;;;;;3.82;100.00;102583.31;5082830;28;20391;-79
2023/03/04 07:00:03;;;;;;;7.68;2.85;;;;;;;3.83;100.00;102587.66;5093407;28;20142;-78
2023/03/04 07:02:28;;;;;;;9.88;2.33;;;;;;;3.86;100.00;102586.88;5092651;28;20032;-78
2023/03/04 07:04:53;;;;;;;11.00;2.67;;;;;;;3.89;100.00;102592.13;5074960;28;20024;-78
2023/03/04 07:07:19;;;;;;;9.98;3.00;;;;;;;3.80;100.00;102582.41;5078232;28;20062;-78
2023/03/04 07:09:44;;;;;;;9.52;2.25;;;;;;;3.86;100.00;102580.03;5075951;28;20210;-78
2023/03/04 07:12:09;;;;;;;10.25;2.42;;;;;;;3.94;100.00;102593.16;5080949;28;20013;-78
2023/03/04 07:14:34;;;;;;;9.55;2.47;;;;;;;3.95;100.00;102592.31;5085373;28;20066;-78
2023/03/04 07:17:00;;;;;;;7.43;2.38;;;;;;;3.94;100.00;102591.47;5084134;28;20489;-78
2023/03/04 07:19:25;;;;;;;12.73;2.45;;;;;;;3.99;100.00;102597.66;5075811;28;20483;-78
2023/03/04 07:21:50;;;;;;;11.70;2.67;;;;;;;4.01;100.00;102587.38;5089684;28;20042;-78
2023/03/04 07:24:16;;;;;;;10.27;2.47;;;;;;;4.08;100.00;102594.47;5087130;28;20078;-78
2023/03/04 07:26:41;;;;;;;8.38;3.05;;;;;;;4.12;100.00;102600.59;5088063;28;20098;-78
2023/03/04 07:29:06;;;;;;;12.25;2.65;;;;;;;4.15;100.00;102598.13;5092746;28;20447;-78
2023/03/04 07:31:36;;;;;;;9.35;2.70;;;;;;;4.16;100.00;102600.75;5090153;28;20028;-78
2023/03/04 07:34:08;;;;;;;10.38;3.08;;;;;;;4.13;100.00;102587.75;5092797;28;20485;-78
2023/03/04 07:36:35;;;;;;;10.45;2.90;;;;;;;4.32;100.00;102604.69;5085057;28;20082;-78
2023/03/04 07:39:01;;;;;;;14.52;2.92;;;;;;;4.35;100.00;102598.72;5091020;28;20024;-78
2023/03/04 07:41:28;;;;;;;6.75;2.55;;;;;;;4.32;100.00;102585.75;5079659;28;20118;-78
2023/03/04 07:43:55;;;;;;;9.23;3.28;;;;;;;4.49;100.00;102594.00;5092503;28;20082;-78
2023/03/04 07:46:20;;;;;;;12.75;3.38;;;;;;;4.60;100.00;102611.53;5092962;28;20023;-79
2023/03/04 07:48:46;;;;;;;9.70;2.90;;;;;;;4.60;100.00;102621.88;5085289;28;20539;-78
2023/03/04 07:51:14;;;;;;;6.70;3.22;;;;;;;4.61;100.00;102617.56;5092003;28;20118;-78
2023/03/04 07:53:42;;;;;;;9.63;2.50;;;;;;;4.66;100.00;102616.03;5092519;28;20111;-78
2023/03/04 07:56:11;;;;;;;11.52;3.03;;;;;;;4.62;100.00;102616.78;5092619;28;20023;-78
2023/03/04 07:58:36;;;;;;;10.52;3.10;;;;;;;4.60;100.00;102615.84;5091872;28;20031;-78
2023/03/04 08:01:08;;;;;;;12.80;3.00;;;;;;;4.61;100.00;102621.06;5092357;28;20052;-78
2023/03/04 08:03:33;;;;;;;15.30;3.33;;;;;;;4.62;100.00;102624.50;5092497;28;20024;-78
2023/03/04 08:05:59;;;;;;;9.30;3.00;;;;;;;4.60;100.00;102621.88;5083034;28;20031;-78
2023/03/04 08:08:24;;;;;;;10.63;3.08;;;;;;;4.62;100.00;102625.38;5091090;28;20480;-78
2023/03/04 08:10:49;;;;;;;12.77;2.92;;;;;;;4.60;100.00;102615.84;5091769;28;20073;-78
2023/03/04 08:13:15;;;;;;;14.38;3.42;;;;;;;4.63;100.00;102626.25;5086619;28;20028;-78
2023/03/04 08:15:41;;;;;;;12.68;2.60;;;;;;;4.69;100.00;102623.84;5092394;28;20060;-78
2023/03/04 08:18:07;;;;;;;8.38;2.97;;;;;;;4.69;100.00;102623.84;5091872;28;20059;-78
2023/03/04 08:20:32;;;;;;;12.77;2.83;;;;;;;4.70;100.00;102620.44;5092325;28;20526;-78
2023/03/04 08:22:57;;;;;;;8.43;2.78;;;;;;;4.76;100.00;102630.09;5085599;28;20024;-78
2023/03/04 08:25:23;;;;;;;10.48;2.92;;;;;;;4.76;100.00;102627.50;5086793;28;20099;-78
2023/03/04 08:27:48;;;;;;;9.65;2.95;;;;;;;4.74;100.00;102614.56;5070788;28;20060;-77
2023/03/04 08:30:14;;;;;;;12.25;3.55;;;;;;;4.90;100.00;102636.50;5081420;28;20028;-78
2023/03/04 08:32:39;;;;;;;8.88;2.85;;;;;;;4.95;100.00;102628.91;5095681;28;20032;-77
2023/03/04 08:35:05;;;;;;;13.65;3.50;;;;;;;4.99;100.00;102629.03;5091034;28;20016;-78
2023/03/04 08:37:30;;;;;;;12.23;3.10;;;;;;;5.01;100.00;102623.91;5096035;28;20042;-78
2023/03/04 08:39:56;;;;;;;10.27;3.20;;;;;;;5.04;100.00;102611.06;5080314;28;20032;-78
2023/03/04 08:42:23;;;;;;;13.85;4.30;;;;;;;5.18;100.00;102624.38;5090203;28;20045;-78
2023/03/04 08:44:48;;;;;;;9.43;2.97;;;;;;;5.25;100.00;102621.13;5093463;28;20024;-78
2023/03/04 08:47:13;;;;;;;7.10;2.75;;;;;;;5.41;100.00;102625.84;5074618;28;20168;-78
2023/03/04 08:49:39;;;;;;;12.68;2.85;;;;;;;5.58;100.00;102629.75;5075807;28;20099;-75
2023/03/04 08:52:04;;;;;;;11.88;2.90;;;;;;;5.61;100.00;102623.78;5076852;28;20464;-75
2023/03/04 08:54:29;;;;;;;9.60;2.67;;;;;;;5.46;100.00;102624.28;5078105;28;20464;-75
2023/03/04 08:56:55;;;;;;;8.50;3.03;;;;;;;5.36;100.00;102623.16;5070997;28;20028;-75
2023/03/04 08:59:20;;;;;;;10.40;2.92;;;;;;;5.43;100.00;102623.28;5082811;28;20112;-76
2023/03/04 09:01:45;;;;;;;12.68;2.90;;;;;;;5.65;100.00;102615.25;5066673;28;20039;-75
2023/03/04 09:04:11;;;;;;;9.02;3.00;;;;;;;5.80;100.00;102599.25;5096167;28;20051;-75
2023/03/04 09:06:36;;;;;;;17.05;3.90;;;;;;;6.13;99.59;102619.91;5095674;28;20368;-75
2023/03/04 09:09:03;;;;;;;9.70;2.90;;;;;;;6.24;96.76;102625.31;5091441;28;20024;-75
2023/03/04 09:11:28;;;;;;;11.13;3.33;;;;;;;6.35;96.89;102623.88;5086962;28;20025;-75
2023/03/04 09:13:53;;;;;;;11.30;2.95;;;;;;;6.55;95.77;102613.94;5083093;28;20530;-75
2023/03/04 09:16:19;;;;;;;7.70;3.20;;;;;;;6.63;93.05;102617.56;5077172;28;20035;-75
2023/03/04 09:18:44;;;;;;;11.70;2.97;;;;;;;6.65;92.95;102615.88;5078750;28;20036;-76
2023/03/04 09:21:10;;;;;;;7.63;2.95;;;;;;;6.73;93.42;102609.13;5079190;28;20025;-76
2023/03/04 09:23:36;;;;;;;13.57;3.22;;;;;;;6.81;93.25;102609.31;5084219;28;20016;-76
2023/03/04 09:26:12;;;;;;;8.02;2.80;;;;;;;6.83;92.43;102604.13;5090865;28;20024;-76
2023/03/04 09:28:37;;;;;;;7.78;2.10;;;;;;;6.79;92.28;102601.47;5087290;28;20111;-75
2023/03/04 09:31:10;;;;;;;9.95;2.88;;;;;;;6.86;91.35;102602.47;5084545;28;20107;-76
2023/03/04 09:33:35;;;;;;;6.63;2.15;;;;;;;7.02;90.21;102595.88;5081230;28;20039;-76
2023/03/04 09:36:00;;;;;;;8.40;2.55;;;;;;;7.06;90.27;102597.66;5077369;28;20032;-76
2023/03/04 09:38:26;;;;;;;10.00;2.42;;;;;;;6.97;90.67;102584.56;5075744;28;20025;-76
2023/03/04 09:40:51;;;;;;;6.40;2.30;;;;;;;7.03;89.57;102597.66;5079448;28;20028;-76
2023/03/04 09:43:28;;;;;;;6.32;1.92;;;;;;;7.02;89.81;102594.16;5085338;28;20043;-76
2023/03/04 09:45:56;;;;;;;11.23;2.45;;;;;;;7.07;88.64;102591.66;5081153;28;20025;-76
2023/03/04 09:48:26;;;;;;;8.50;2.15;;;;;;;7.18;88.67;102592.72;5094961;28;20016;-76
2023/03/04 09:51:19;;;;;;;10.07;2.05;;;;;;;7.36;88.59;102601.72;5094232;28;20416;-76
2023/03/04 09:53:54;;;;;;;5.53;1.90;;;;;;;7.36;87.38;102591.34;5084399;28;20072;-76
2023/03/04 09:56:21;;;;;;;7.35;1.58;;;;;;;7.54;87.24;102599.41;5079997;28;20069;-75
2023/03/04 09:59:19;;;;;;;3.67;1.30;;;;;;;7.61;85.50;102597.78;5093109;28;20363;-76
2023/03/04 10:01:55;;;;;;;4.05;1.60;;;;;;;7.64;84.42;102597.84;5052022;28;20049;-76
2023/03/04 10:04:35;;;;;;;6.40;1.30;;;;;;;7.65;83.26;102592.69;5080430;28;20544;-75
2023/03/04 10:07:06;;;;;;;3.25;1.33;;;;;;;7.54;83.14;102601.16;5067619;28;20039;-75
2023/03/04 10:09:36;;;;;;;3.47;1.20;;;;;;;7.50;84.58;102590.72;5087960;28;20023;-75
2023/03/04 10:12:06;;;;;;;4.82;1.63;;;;;;;7.55;84.55;102593.38;5069341;28;20032;-76
2023/03/04 10:14:37;;;;;;;5.78;1.50;;;;;;;7.68;84.79;102589.25;5086114;28;20521;-75
2023/03/04 10:17:06;;;;;;;3.08;1.63;;;;;;;7.68;83.57;102586.66;5074637;28;20026;-74
2023/03/04 10:19:50;;;;;;;3.58;1.75;;;;;;;7.69;83.82;102591.03;5071610;28;20025;-74
2023/03/04 10:22:25;;;;;;;6.80;2.20;;;;;;;7.67;83.58;102588.38;5073495;28;20051;-75
2023/03/04 10:24:55;;;;;;;9.88;2.05;;;;;;;7.65;82.28;102590.09;5071621;28;20033;-75
2023/03/04 10:27:22;;;;;;;6.97;1.63;;;;;;;7.75;82.90;102580.75;5076466;28;20049;-75
2023/03/04 10:29:47;;;;;;;3.85;1.67;;;;;;;7.78;82.77;102575.56;5070373;28;20399;-75
2023/03/04 10:32:16;;;;;;;3.28;1.58;;;;;;;8.16;81.33;102583.06;5062517;28;20036;-75
2023/03/04 10:34:42;;;;;;;5.25;2.15;;;;;;;8.47;77.48;102573.13;5072875;28;20107;-75
2023/03/04 10:37:08;;;;;;;3.97;1.83;;;;;;;8.57;77.60;102570.69;5090097;28;20471;-76
2023/03/04 10:39:39;;;;;;;5.47;2.00;;;;;;;8.55;76.61;102564.56;5087942;28;20025;-75
2023/03/04 10:42:19;;;;;;;6.72;1.60;;;;;;;8.38;76.42;102566.09;5070352;28;20062;-75
2023/03/04 10:44:51;;;;;;;5.53;1.58;;;;;;;8.09;76.36;102568.25;5089894;28;20024;-75
2023/03/04 10:47:17;;;;;;;5.18;1.48;;;;;;;7.76;77.86;102569.50;5063463;28;20028;-75
2023/03/04 10:49:52;;;;;;;3.45;1.63;;;;;;;7.61;80.02;102569.25;5091892;28;20097;-75
2023/03/04 10:52:22;;;;;;;6.40;1.80;;;;;;;7.46;80.92;102572.47;5092927;28;20114;-75
2023/03/04 10:54:57;;;;;;;4.95;1.48;;;;;;;7.41;82.31;102568.91;5088173;28;20350;-75
2023/03/04 10:57:38;;;;;;;4.15;1.65;;;;;;;7.27;83.36;102566.09;5082710;28;20475;-78
2023/03/04 11:00:16;;;;;;;5.63;1.77;;;;;;;7.25;84.15;102568.63;5081506;28;20040;-76
2023/03/04 11:02:41;;;;;;;6.85;2.15;;;;;;;7.16;84.15;102565.91;5091983;28;20028;-75
2023/03/04 11:05:24;;;;;;;4.90;1.75;;;;;;;7.20;84.90;102559.06;5073544;28;20062;-73
2023/03/04 11:07:50;;;;;;;6.00;2.03;;;;;;;7.23;85.11;102570.34;5086471;28;20044;-76
2023/03/04 11:10:29;;;;;;;5.25;1.77;;;;;;;7.25;85.32;102571.22;5093750;28;20066;-76
2023/03/04 11:13:00;;;;;;;5.65;1.90;;;;;;;7.22;84.59;102565.13;5085281;28;20032;-76
2023/03/04 11:15:28;;;;;;;5.25;2.25;;;;;;;7.15;85.53;102558.94;5074865;28;20115;-75
2023/03/04 11:18:01;;;;;;;4.22;1.73;;;;;;;7.15;86.31;102564.13;5082712;28;20488;-76
2023/03/04 11:20:33;;;;;;;3.97;2.00;;;;;;;7.06;87.52;102552.72;5093056;28;20031;-75
2023/03/04 11:23:33;;;;;;;5.43;1.88;;;;;;;6.97;88.27;102556.03;5074834;28;20060;-75
2023/03/04 11:26:18;;;;;;;5.57;1.83;;;;;;;6.93;89.94;102555.09;5071043;28;20170;-74